sensor_id;sensor_type;location;lat;lon;timestamp;P1;durP1;ratioP1;P2;durP2;ratioP2
23400;SDS011;11873;49.300;8.920;2022-12-18T00:04:27;25.17;;;20.77;;
23400;SDS011;11873;49.300;8.920;2022-12-18T00:09:27;28.63;;;22.13;;
23400;SDS011;11873;49.300;8.920;2022-12-18T00:14:27;31.43;;;22.43;;
23400;SDS011;11873;49.300;8.920;2022-12-18T00:19:28;28.47;;;22.00;;
23400;SDS011;11873;49.300;8.920;2022-12-18T00:24:28;28.40;;;22.03;;
23400;SDS011;11873;49.300;8.920;2022-12-18T00:29:28;28.27;;;21.87;;
23400;SDS011;11873;49.300;8.920;2022-12-18T00:34:28;30.10;;;22.67;;
23400;SDS011;11873;49.300;8.920;2022-12-18T00:39:28;32.13;;;22.10;;
23400;SDS011;11873;49.300;8.920;2022-12-18T00:44:28;28.53;;;22.40;;
23400;SDS011;11873;49.300;8.920;2022-12-18T00:49:29;29.97;;;21.87;;
23400;SDS011;11873;49.300;8.920;2022-12-18T00:54:29;29.97;;;22.23;;
23400;SDS011;11873;49.300;8.920;2022-12-18T00:59:29;31.93;;;24.07;;
23400;SDS011;11873;49.300;8.920;2022-12-18T01:04:31;30.30;;;23.17;;
23400;SDS011;11873;49.300;8.920;2022-12-18T01:09:31;27.50;;;21.50;;
23400;SDS011;11873;49.300;8.920;2022-12-18T01:14:31;29.07;;;21.70;;
23400;SDS011;11873;49.300;8.920;2022-12-18T01:19:31;24.80;;;19.93;;
23400;SDS011;11873;49.300;8.920;2022-12-18T01:24:32;28.07;;;21.27;;
23400;SDS011;11873;49.300;8.920;2022-12-18T01:29:32;29.33;;;21.27;;
23400;SDS011;11873;49.300;8.920;2022-12-18T01:34:32;26.53;;;20.70;;
23400;SDS011;11873;49.300;8.920;2022-12-18T01:39:32;29.43;;;21.00;;
23400;SDS011;11873;49.300;8.920;2022-12-18T01:49:52;25.20;;;21.20;;
23400;SDS011;11873;49.300;8.920;2022-12-18T01:54:53;22.87;;;20.10;;
23400;SDS011;11873;49.300;8.920;2022-12-18T01:59:54;27.40;;;21.87;;
23400;SDS011;11873;49.300;8.920;2022-12-18T02:04:56;24.00;;;20.77;;
23400;SDS011;11873;49.300;8.920;2022-12-18T02:10:01;28.00;;;21.20;;
23400;SDS011;11873;49.300;8.920;2022-12-18T02:15:07;25.50;;;19.63;;
23400;SDS011;11873;49.300;8.920;2022-12-18T02:30:19;25.53;;;19.77;;
23400;SDS011;11873;49.300;8.920;2022-12-18T02:35:23;27.70;;;19.87;;
23400;SDS011;11873;49.300;8.920;2022-12-18T02:40:24;25.33;;;19.83;;
23400;SDS011;11873;49.300;8.920;2022-12-18T02:45:26;23.67;;;19.07;;
23400;SDS011;11873;49.300;8.920;2022-12-18T03:00:43;24.73;;;19.13;;
23400;SDS011;11873;49.300;8.920;2022-12-18T03:05:47;28.17;;;19.27;;
23400;SDS011;11873;49.300;8.920;2022-12-18T03:11:00;25.20;;;18.90;;
23400;SDS011;11873;49.300;8.920;2022-12-18T03:16:01;24.77;;;19.77;;
23400;SDS011;11873;49.300;8.920;2022-12-18T03:21:04;26.03;;;19.20;;
23400;SDS011;11873;49.300;8.920;2022-12-18T03:26:07;24.83;;;20.07;;
23400;SDS011;11873;49.300;8.920;2022-12-18T03:31:09;23.07;;;17.47;;
23400;SDS011;11873;49.300;8.920;2022-12-18T03:36:11;26.00;;;19.80;;
23400;SDS011;11873;49.300;8.920;2022-12-18T03:46:17;23.20;;;18.77;;
23400;SDS011;11873;49.300;8.920;2022-12-18T03:51:25;23.93;;;17.53;;
23400;SDS011;11873;49.300;8.920;2022-12-18T03:56:28;23.93;;;17.97;;
23400;SDS011;11873;49.300;8.920;2022-12-18T04:01:30;23.70;;;17.53;;
23400;SDS011;11873;49.300;8.920;2022-12-18T04:06:31;23.27;;;16.87;;
23400;SDS011;11873;49.300;8.920;2022-12-18T04:11:32;26.17;;;19.00;;
23400;SDS011;11873;49.300;8.920;2022-12-18T04:16:32;23.57;;;17.33;;
23400;SDS011;11873;49.300;8.920;2022-12-18T04:21:32;33.67;;;23.57;;
23400;SDS011;11873;49.300;8.920;2022-12-18T04:26:32;23.13;;;17.87;;
23400;SDS011;11873;49.300;8.920;2022-12-18T04:31:32;22.73;;;18.17;;
23400;SDS011;11873;49.300;8.920;2022-12-18T04:36:32;24.27;;;18.63;;
23400;SDS011;11873;49.300;8.920;2022-12-18T04:41:33;26.83;;;20.30;;
23400;SDS011;11873;49.300;8.920;2022-12-18T04:46:33;27.00;;;19.27;;
23400;SDS011;11873;49.300;8.920;2022-12-18T04:51:33;24.07;;;18.57;;
23400;SDS011;11873;49.300;8.920;2022-12-18T04:56:33;22.30;;;16.63;;
23400;SDS011;11873;49.300;8.920;2022-12-18T05:01:33;23.10;;;18.47;;
23400;SDS011;11873;49.300;8.920;2022-12-18T05:06:34;21.73;;;16.97;;
23400;SDS011;11873;49.300;8.920;2022-12-18T05:11:35;25.13;;;17.57;;
23400;SDS011;11873;49.300;8.920;2022-12-18T05:16:35;23.27;;;17.00;;
23400;SDS011;11873;49.300;8.920;2022-12-18T05:21:36;23.63;;;18.50;;
23400;SDS011;11873;49.300;8.920;2022-12-18T05:26:36;23.57;;;17.23;;
23400;SDS011;11873;49.300;8.920;2022-12-18T05:31:36;23.98;;;16.98;;
23400;SDS011;11873;49.300;8.920;2022-12-18T05:36:38;21.70;;;17.00;;
23400;SDS011;11873;49.300;8.920;2022-12-18T05:41:39;22.00;;;18.00;;
23400;SDS011;11873;49.300;8.920;2022-12-18T05:46:39;24.27;;;19.27;;
23400;SDS011;11873;49.300;8.920;2022-12-18T05:51:39;18.80;;;16.43;;
23400;SDS011;11873;49.300;8.920;2022-12-18T05:56:39;22.03;;;17.73;;
23400;SDS011;11873;49.300;8.920;2022-12-18T06:01:39;22.97;;;16.93;;
23400;SDS011;11873;49.300;8.920;2022-12-18T06:06:39;21.67;;;17.67;;
23400;SDS011;11873;49.300;8.920;2022-12-18T06:11:40;23.57;;;17.40;;
23400;SDS011;11873;49.300;8.920;2022-12-18T06:16:40;22.03;;;17.23;;
23400;SDS011;11873;49.300;8.920;2022-12-18T06:21:40;25.70;;;18.77;;
23400;SDS011;11873;49.300;8.920;2022-12-18T06:26:40;24.80;;;19.00;;
23400;SDS011;11873;49.300;8.920;2022-12-18T06:31:40;22.50;;;17.83;;
23400;SDS011;11873;49.300;8.920;2022-12-18T06:36:41;25.67;;;19.00;;
23400;SDS011;11873;49.300;8.920;2022-12-18T06:41:41;23.17;;;18.43;;
23400;SDS011;11873;49.300;8.920;2022-12-18T06:46:41;24.87;;;18.73;;
23400;SDS011;11873;49.300;8.920;2022-12-18T06:51:41;23.90;;;17.07;;
23400;SDS011;11873;49.300;8.920;2022-12-18T06:56:42;24.80;;;18.20;;
23400;SDS011;11873;49.300;8.920;2022-12-18T07:01:42;24.20;;;18.40;;
23400;SDS011;11873;49.300;8.920;2022-12-18T07:06:42;24.97;;;19.23;;
23400;SDS011;11873;49.300;8.920;2022-12-18T07:11:42;26.80;;;18.93;;
23400;SDS011;11873;49.300;8.920;2022-12-18T07:16:42;27.97;;;20.50;;
23400;SDS011;11873;49.300;8.920;2022-12-18T07:21:43;26.43;;;19.47;;
23400;SDS011;11873;49.300;8.920;2022-12-18T07:26:45;32.33;;;22.03;;
23400;SDS011;11873;49.300;8.920;2022-12-18T07:31:45;30.13;;;20.93;;
23400;SDS011;11873;49.300;8.920;2022-12-18T07:36:45;24.70;;;19.77;;
23400;SDS011;11873;49.300;8.920;2022-12-18T07:41:45;27.33;;;20.77;;
23400;SDS011;11873;49.300;8.920;2022-12-18T07:46:46;27.23;;;19.57;;
23400;SDS011;11873;49.300;8.920;2022-12-18T07:51:46;22.60;;;18.10;;
23400;SDS011;11873;49.300;8.920;2022-12-18T07:56:47;23.43;;;18.17;;
23400;SDS011;11873;49.300;8.920;2022-12-18T08:01:47;26.33;;;19.87;;
23400;SDS011;11873;49.300;8.920;2022-12-18T08:06:47;25.17;;;18.90;;
23400;SDS011;11873;49.300;8.920;2022-12-18T08:11:47;26.03;;;18.13;;
23400;SDS011;11873;49.300;8.920;2022-12-18T08:16:47;23.17;;;15.73;;
23400;SDS011;11873;49.300;8.920;2022-12-18T08:21:48;29.73;;;19.83;;
23400;SDS011;11873;49.300;8.920;2022-12-18T08:26:48;25.73;;;17.40;;
23400;SDS011;11873;49.300;8.920;2022-12-18T08:31:48;25.60;;;16.97;;
23400;SDS011;11873;49.300;8.920;2022-12-18T08:36:48;23.33;;;18.13;;
23400;SDS011;11873;49.300;8.920;2022-12-18T08:41:49;24.03;;;16.80;;
23400;SDS011;11873;49.300;8.920;2022-12-18T08:46:49;23.17;;;17.87;;
23400;SDS011;11873;49.300;8.920;2022-12-18T08:51:53;22.67;;;18.07;;
23400;SDS011;11873;49.300;8.920;2022-12-18T08:56:53;24.13;;;17.43;;
23400;SDS011;11873;49.300;8.920;2022-12-18T09:01:54;22.97;;;15.03;;
23400;SDS011;11873;49.300;8.920;2022-12-18T09:06:54;22.33;;;14.30;;
23400;SDS011;11873;49.300;8.920;2022-12-18T09:11:56;20.50;;;14.03;;
23400;SDS011;11873;49.300;8.920;2022-12-18T09:16:56;23.23;;;16.10;;
23400;SDS011;11873;49.300;8.920;2022-12-18T09:21:56;19.87;;;13.43;;
23400;SDS011;11873;49.300;8.920;2022-12-18T09:26:57;28.70;;;16.53;;
23400;SDS011;11873;49.300;8.920;2022-12-18T09:31:57;23.13;;;15.70;;
23400;SDS011;11873;49.300;8.920;2022-12-18T09:36:57;21.00;;;12.40;;
23400;SDS011;11873;49.300;8.920;2022-12-18T09:41:57;21.27;;;14.83;;
23400;SDS011;11873;49.300;8.920;2022-12-18T09:47:01;24.13;;;16.73;;
23400;SDS011;11873;49.300;8.920;2022-12-18T09:52:05;23.77;;;15.03;;
23400;SDS011;11873;49.300;8.920;2022-12-18T09:57:19;25.23;;;15.23;;
23400;SDS011;11873;49.300;8.920;2022-12-18T10:02:21;27.07;;;18.00;;
23400;SDS011;11873;49.300;8.920;2022-12-18T10:07:28;23.37;;;15.47;;
23400;SDS011;11873;49.300;8.920;2022-12-18T10:12:32;31.97;;;20.50;;
23400;SDS011;11873;49.300;8.920;2022-12-18T10:22:49;26.70;;;17.50;;
23400;SDS011;11873;49.300;8.920;2022-12-18T10:27:55;31.60;;;18.80;;
23400;SDS011;11873;49.300;8.920;2022-12-18T10:33:00;19.43;;;13.13;;
23400;SDS011;11873;49.300;8.920;2022-12-18T10:43:13;17.73;;;11.63;;
23400;SDS011;11873;49.300;8.920;2022-12-18T10:48:17;24.60;;;18.20;;
23400;SDS011;11873;49.300;8.920;2022-12-18T10:53:20;32.13;;;19.53;;
23400;SDS011;11873;49.300;8.920;2022-12-18T11:03:29;17.90;;;11.83;;
23400;SDS011;11873;49.300;8.920;2022-12-18T11:08:29;23.47;;;15.07;;
23400;SDS011;11873;49.300;8.920;2022-12-18T11:13:30;15.60;;;9.63;;
23400;SDS011;11873;49.300;8.920;2022-12-18T11:18:32;19.53;;;12.97;;
23400;SDS011;11873;49.300;8.920;2022-12-18T11:23:32;15.90;;;10.83;;
23400;SDS011;11873;49.300;8.920;2022-12-18T11:28:38;19.20;;;12.83;;
23400;SDS011;11873;49.300;8.920;2022-12-18T11:33:39;8.57;;;6.47;;
23400;SDS011;11873;49.300;8.920;2022-12-18T11:38:40;19.80;;;13.17;;
23400;SDS011;11873;49.300;8.920;2022-12-18T11:44:17;14.13;;;8.27;;
23400;SDS011;11873;49.300;8.920;2022-12-18T11:49:20;19.97;;;12.10;;
23400;SDS011;11873;49.300;8.920;2022-12-18T11:54:22;18.63;;;11.10;;
23400;SDS011;11873;49.300;8.920;2022-12-18T12:04:44;12.40;;;9.30;;
23400;SDS011;11873;49.300;8.920;2022-12-18T12:20:53;23.13;;;13.60;;
23400;SDS011;11873;49.300;8.920;2022-12-18T12:26:05;23.63;;;14.37;;
23400;SDS011;11873;49.300;8.920;2022-12-18T12:41:26;20.90;;;11.43;;
23400;SDS011;11873;49.300;8.920;2022-12-18T12:46:27;24.07;;;15.77;;
23400;SDS011;11873;49.300;8.920;2022-12-18T12:51:35;19.07;;;11.47;;
23400;SDS011;11873;49.300;8.920;2022-12-18T12:56:38;30.77;;;18.13;;
23400;SDS011;11873;49.300;8.920;2022-12-18T13:12:03;21.77;;;13.40;;
23400;SDS011;11873;49.300;8.920;2022-12-18T13:22:22;12.57;;;8.00;;
23400;SDS011;11873;49.300;8.920;2022-12-18T13:27:58;19.57;;;11.37;;
23400;SDS011;11873;49.300;8.920;2022-12-18T13:32:46;19.63;;;12.53;;
23400;SDS011;11873;49.300;8.920;2022-12-18T13:37:52;13.40;;;8.40;;
23400;SDS011;11873;49.300;8.920;2022-12-18T13:42:53;25.57;;;15.43;;
23400;SDS011;11873;49.300;8.920;2022-12-18T13:47:53;25.00;;;14.97;;
23400;SDS011;11873;49.300;8.920;2022-12-18T13:52:53;19.57;;;13.57;;
23400;SDS011;11873;49.300;8.920;2022-12-18T13:58:03;22.07;;;14.27;;
23400;SDS011;11873;49.300;8.920;2022-12-18T14:03:15;25.73;;;16.47;;
23400;SDS011;11873;49.300;8.920;2022-12-18T14:08:16;21.83;;;13.83;;
23400;SDS011;11873;49.300;8.920;2022-12-18T14:13:58;24.97;;;14.60;;
23400;SDS011;11873;49.300;8.920;2022-12-18T14:18:55;26.90;;;17.13;;
23400;SDS011;11873;49.300;8.920;2022-12-18T14:24:03;26.03;;;16.40;;
23400;SDS011;11873;49.300;8.920;2022-12-18T14:29:24;19.53;;;12.37;;
23400;SDS011;11873;49.300;8.920;2022-12-18T14:34:26;24.00;;;15.77;;
23400;SDS011;11873;49.300;8.920;2022-12-18T14:39:26;24.67;;;16.67;;
23400;SDS011;11873;49.300;8.920;2022-12-18T14:44:26;24.10;;;16.03;;
23400;SDS011;11873;49.300;8.920;2022-12-18T14:49:27;28.20;;;17.70;;
23400;SDS011;11873;49.300;8.920;2022-12-18T14:54:29;26.20;;;15.93;;
23400;SDS011;11873;49.300;8.920;2022-12-18T14:59:30;26.53;;;16.97;;
23400;SDS011;11873;49.300;8.920;2022-12-18T15:09:30;31.13;;;18.63;;
23400;SDS011;11873;49.300;8.920;2022-12-18T15:14:31;26.23;;;17.93;;
23400;SDS011;11873;49.300;8.920;2022-12-18T15:19:34;27.10;;;17.67;;
23400;SDS011;11873;49.300;8.920;2022-12-18T15:24:35;36.63;;;19.07;;
23400;SDS011;11873;49.300;8.920;2022-12-18T15:29:35;29.43;;;17.47;;
23400;SDS011;11873;49.300;8.920;2022-12-18T15:34:35;25.90;;;16.87;;
23400;SDS011;11873;49.300;8.920;2022-12-18T15:39:36;26.83;;;16.40;;
23400;SDS011;11873;49.300;8.920;2022-12-18T15:44:36;24.40;;;15.50;;
23400;SDS011;11873;49.300;8.920;2022-12-18T15:49:36;26.77;;;16.53;;
23400;SDS011;11873;49.300;8.920;2022-12-18T15:54:37;26.90;;;15.47;;
23400;SDS011;11873;49.300;8.920;2022-12-18T15:59:37;25.20;;;16.00;;
23400;SDS011;11873;49.300;8.920;2022-12-18T16:04:37;26.60;;;17.00;;
23400;SDS011;11873;49.300;8.920;2022-12-18T16:09:37;25.93;;;16.10;;
23400;SDS011;11873;49.300;8.920;2022-12-18T16:14:38;24.83;;;16.30;;
23400;SDS011;11873;49.300;8.920;2022-12-18T16:19:38;27.37;;;16.00;;
23400;SDS011;11873;49.300;8.920;2022-12-18T16:24:38;30.60;;;17.37;;
23400;SDS011;11873;49.300;8.920;2022-12-18T16:29:38;29.30;;;17.07;;
23400;SDS011;11873;49.300;8.920;2022-12-18T16:34:39;27.03;;;16.93;;
23400;SDS011;11873;49.300;8.920;2022-12-18T16:39:39;21.73;;;15.27;;
23400;SDS011;11873;49.300;8.920;2022-12-18T16:44:40;27.27;;;16.60;;
23400;SDS011;11873;49.300;8.920;2022-12-18T16:49:40;25.80;;;16.17;;
23400;SDS011;11873;49.300;8.920;2022-12-18T16:54:40;27.03;;;15.17;;
23400;SDS011;11873;49.300;8.920;2022-12-18T16:59:40;25.00;;;15.93;;
23400;SDS011;11873;49.300;8.920;2022-12-18T17:04:41;25.37;;;16.27;;
23400;SDS011;11873;49.300;8.920;2022-12-18T17:09:41;27.50;;;16.60;;
23400;SDS011;11873;49.300;8.920;2022-12-18T17:14:41;25.40;;;16.10;;
23400;SDS011;11873;49.300;8.920;2022-12-18T17:19:42;25.43;;;15.97;;
23400;SDS011;11873;49.300;8.920;2022-12-18T17:24:42;23.07;;;15.47;;
23400;SDS011;11873;49.300;8.920;2022-12-18T17:29:42;29.33;;;17.50;;
23400;SDS011;11873;49.300;8.920;2022-12-18T17:34:42;26.00;;;18.00;;
23400;SDS011;11873;49.300;8.920;2022-12-18T17:39:43;27.60;;;16.00;;
23400;SDS011;11873;49.300;8.920;2022-12-18T17:44:43;23.27;;;15.23;;
23400;SDS011;11873;49.300;8.920;2022-12-18T17:49:43;24.50;;;15.90;;
23400;SDS011;11873;49.300;8.920;2022-12-18T17:54:43;22.33;;;15.03;;
23400;SDS011;11873;49.300;8.920;2022-12-18T17:59:44;24.77;;;15.00;;
23400;SDS011;11873;49.300;8.920;2022-12-18T18:04:44;30.63;;;17.43;;
23400;SDS011;11873;49.300;8.920;2022-12-18T18:09:44;28.97;;;17.90;;
23400;SDS011;11873;49.300;8.920;2022-12-18T18:14:44;24.03;;;16.40;;
23400;SDS011;11873;49.300;8.920;2022-12-18T18:19:44;25.73;;;15.47;;
23400;SDS011;11873;49.300;8.920;2022-12-18T18:24:45;21.83;;;14.33;;
23400;SDS011;11873;49.300;8.920;2022-12-18T18:29:45;25.33;;;16.37;;
23400;SDS011;11873;49.300;8.920;2022-12-18T18:34:45;23.00;;;15.23;;
23400;SDS011;11873;49.300;8.920;2022-12-18T18:39:45;24.67;;;16.40;;
23400;SDS011;11873;49.300;8.920;2022-12-18T18:44:45;22.43;;;15.60;;
23400;SDS011;11873;49.300;8.920;2022-12-18T18:49:46;24.50;;;16.33;;
23400;SDS011;11873;49.300;8.920;2022-12-18T18:54:46;18.20;;;11.80;;
23400;SDS011;11873;49.300;8.920;2022-12-18T18:59:47;25.57;;;16.77;;
23400;SDS011;11873;49.300;8.920;2022-12-18T19:04:47;23.83;;;16.23;;
23400;SDS011;11873;49.300;8.920;2022-12-18T19:09:47;21.97;;;13.87;;
23400;SDS011;11873;49.300;8.920;2022-12-18T19:14:47;22.63;;;14.63;;
23400;SDS011;11873;49.300;8.920;2022-12-18T19:19:49;23.30;;;15.10;;
23400;SDS011;11873;49.300;8.920;2022-12-18T19:24:50;24.43;;;16.30;;
23400;SDS011;11873;49.300;8.920;2022-12-18T19:29:50;24.63;;;15.67;;
23400;SDS011;11873;49.300;8.920;2022-12-18T19:34:51;20.23;;;13.07;;
23400;SDS011;11873;49.300;8.920;2022-12-18T19:39:51;24.43;;;15.93;;
23400;SDS011;11873;49.300;8.920;2022-12-18T19:44:52;25.37;;;15.90;;
23400;SDS011;11873;49.300;8.920;2022-12-18T19:49:52;24.50;;;16.57;;
23400;SDS011;11873;49.300;8.920;2022-12-18T19:54:52;22.57;;;15.43;;
23400;SDS011;11873;49.300;8.920;2022-12-18T19:59:52;22.77;;;16.43;;
23400;SDS011;11873;49.300;8.920;2022-12-18T20:04:54;21.93;;;14.47;;
23400;SDS011;11873;49.300;8.920;2022-12-18T20:09:54;24.30;;;17.17;;
23400;SDS011;11873;49.300;8.920;2022-12-18T20:14:54;27.73;;;17.53;;
23400;SDS011;11873;49.300;8.920;2022-12-18T20:19:54;23.97;;;15.23;;
23400;SDS011;11873;49.300;8.920;2022-12-18T20:24:54;22.27;;;14.63;;
23400;SDS011;11873;49.300;8.920;2022-12-18T20:29:55;22.33;;;15.17;;
23400;SDS011;11873;49.300;8.920;2022-12-18T20:34:55;20.73;;;13.17;;
23400;SDS011;11873;49.300;8.920;2022-12-18T20:39:55;25.37;;;16.83;;
23400;SDS011;11873;49.300;8.920;2022-12-18T20:44:55;18.90;;;12.13;;
23400;SDS011;11873;49.300;8.920;2022-12-18T20:49:55;22.57;;;14.50;;
23400;SDS011;11873;49.300;8.920;2022-12-18T20:54:56;23.87;;;15.43;;
23400;SDS011;11873;49.300;8.920;2022-12-18T20:59:56;25.13;;;16.50;;
23400;SDS011;11873;49.300;8.920;2022-12-18T21:04:56;23.53;;;14.73;;
23400;SDS011;11873;49.300;8.920;2022-12-18T21:09:56;20.73;;;13.90;;
23400;SDS011;11873;49.300;8.920;2022-12-18T21:14:56;25.83;;;16.07;;
23400;SDS011;11873;49.300;8.920;2022-12-18T21:19:57;20.73;;;13.65;;
23400;SDS011;11873;49.300;8.920;2022-12-18T21:24:57;24.97;;;16.57;;
23400;SDS011;11873;49.300;8.920;2022-12-18T21:29:57;26.60;;;17.13;;
23400;SDS011;11873;49.300;8.920;2022-12-18T21:34:57;26.47;;;17.67;;
23400;SDS011;11873;49.300;8.920;2022-12-18T21:39:57;22.47;;;15.97;;
23400;SDS011;11873;49.300;8.920;2022-12-18T21:44:58;29.17;;;17.27;;
23400;SDS011;11873;49.300;8.920;2022-12-18T21:49:58;25.37;;;18.43;;
23400;SDS011;11873;49.300;8.920;2022-12-18T21:54:59;26.00;;;18.93;;
23400;SDS011;11873;49.300;8.920;2022-12-18T21:59:59;27.07;;;16.37;;
23400;SDS011;11873;49.300;8.920;2022-12-18T22:04:59;27.00;;;16.77;;
23400;SDS011;11873;49.300;8.920;2022-12-18T22:09:59;24.40;;;15.13;;
23400;SDS011;11873;49.300;8.920;2022-12-18T22:15:00;29.27;;;18.10;;
23400;SDS011;11873;49.300;8.920;2022-12-18T22:20:00;29.03;;;19.67;;
23400;SDS011;11873;49.300;8.920;2022-12-18T22:25:00;28.97;;;18.40;;
23400;SDS011;11873;49.300;8.920;2022-12-18T22:30:01;29.20;;;18.67;;
23400;SDS011;11873;49.300;8.920;2022-12-18T22:35:03;25.50;;;16.73;;
23400;SDS011;11873;49.300;8.920;2022-12-18T22:40:04;25.23;;;16.90;;
23400;SDS011;11873;49.300;8.920;2022-12-18T22:45:04;23.60;;;15.93;;
23400;SDS011;11873;49.300;8.920;2022-12-18T22:50:05;27.53;;;18.53;;
23400;SDS011;11873;49.300;8.920;2022-12-18T22:55:05;30.43;;;18.27;;
23400;SDS011;11873;49.300;8.920;2022-12-18T23:00:06;23.30;;;16.50;;
23400;SDS011;11873;49.300;8.920;2022-12-18T23:05:06;22.23;;;16.50;;
23400;SDS011;11873;49.300;8.920;2022-12-18T23:10:06;26.62;;;17.20;;
23400;SDS011;11873;49.300;8.920;2022-12-18T23:15:07;26.67;;;18.43;;
23400;SDS011;11873;49.300;8.920;2022-12-18T23:20:07;25.40;;;17.70;;
23400;SDS011;11873;49.300;8.920;2022-12-18T23:25:07;25.70;;;16.80;;
23400;SDS011;11873;49.300;8.920;2022-12-18T23:30:08;27.93;;;17.87;;
23400;SDS011;11873;49.300;8.920;2022-12-18T23:35:08;27.00;;;18.63;;
23400;SDS011;11873;49.300;8.920;2022-12-18T23:40:09;28.40;;;16.80;;
23400;SDS011;11873;49.300;8.920;2022-12-18T23:45:09;24.83;;;17.13;;
23400;SDS011;11873;49.300;8.920;2022-12-18T23:50:09;27.52;;;16.75;;
23400;SDS011;11873;49.300;8.920;2022-12-18T23:55:09;23.27;;;14.50;;
